sensor_id;sensor_type;location;lat;lon;timestamp;P1;durP1;ratioP1;P2;durP2;ratioP2
46290;SDS011;32023;44.444;26.006;2023-01-04T00:01:16;64.35;;;40.25;;
46290;SDS011;32023;44.444;26.006;2023-01-04T00:03:44;72.65;;;44.10;;
46290;SDS011;32023;44.444;26.006;2023-01-04T00:06:11;63.85;;;40.70;;
46290;SDS011;32023;44.444;26.006;2023-01-04T00:08:39;69.47;;;40.53;;
46290;SDS011;32023;44.444;26.006;2023-01-04T00:13:56;60.83;;;37.58;;
46290;SDS011;32023;44.444;26.006;2023-01-04T00:16:31;64.15;;;37.17;;
46290;SDS011;32023;44.444;26.006;2023-01-04T00:18:57;57.30;;;35.85;;
46290;SDS011;32023;44.444;26.006;2023-01-04T00:21:26;57.92;;;35.38;;
46290;SDS011;32023;44.444;26.006;2023-01-04T00:23:57;64.10;;;38.20;;
46290;SDS011;32023;44.444;26.006;2023-01-04T00:26:26;59.88;;;36.65;;
46290;SDS011;32023;44.444;26.006;2023-01-04T00:28:58;63.67;;;37.95;;
46290;SDS011;32023;44.444;26.006;2023-01-04T00:31:28;58.45;;;37.65;;
46290;SDS011;32023;44.444;26.006;2023-01-04T00:33:55;64.38;;;39.92;;
46290;SDS011;32023;44.444;26.006;2023-01-04T00:36:23;59.97;;;38.03;;
46290;SDS011;32023;44.444;26.006;2023-01-04T00:38:50;62.22;;;39.50;;
46290;SDS011;32023;44.444;26.006;2023-01-04T00:44:01;61.78;;;39.85;;
46290;SDS011;32023;44.444;26.006;2023-01-04T00:46:29;59.90;;;38.90;;
46290;SDS011;32023;44.444;26.006;2023-01-04T00:48:59;63.35;;;38.17;;
46290;SDS011;32023;44.444;26.006;2023-01-04T00:51:25;58.80;;;37.08;;
46290;SDS011;32023;44.444;26.006;2023-01-04T00:53:52;61.28;;;39.13;;
46290;SDS011;32023;44.444;26.006;2023-01-04T00:56:22;61.92;;;37.35;;
46290;SDS011;32023;44.444;26.006;2023-01-04T00:58:48;55.47;;;35.55;;
46290;SDS011;32023;44.444;26.006;2023-01-04T01:01:22;67.63;;;39.78;;
46290;SDS011;32023;44.444;26.006;2023-01-04T01:03:56;55.40;;;35.08;;
46290;SDS011;32023;44.444;26.006;2023-01-04T01:06:25;53.10;;;35.70;;
46290;SDS011;32023;44.444;26.006;2023-01-04T01:08:52;65.78;;;39.88;;
46290;SDS011;32023;44.444;26.006;2023-01-04T01:11:22;56.00;;;34.45;;
46290;SDS011;32023;44.444;26.006;2023-01-04T01:13:49;59.58;;;38.03;;
46290;SDS011;32023;44.444;26.006;2023-01-04T01:16:17;57.40;;;35.42;;
46290;SDS011;32023;44.444;26.006;2023-01-04T01:18:45;60.30;;;38.22;;
46290;SDS011;32023;44.444;26.006;2023-01-04T01:21:13;66.18;;;39.72;;
46290;SDS011;32023;44.444;26.006;2023-01-04T01:23:42;61.33;;;39.33;;
46290;SDS011;32023;44.444;26.006;2023-01-04T01:26:10;59.83;;;36.67;;
46290;SDS011;32023;44.444;26.006;2023-01-04T01:28:42;62.90;;;38.55;;
46290;SDS011;32023;44.444;26.006;2023-01-04T01:31:13;58.95;;;39.17;;
46290;SDS011;32023;44.444;26.006;2023-01-04T01:33:47;59.08;;;38.15;;
46290;SDS011;32023;44.444;26.006;2023-01-04T01:36:15;66.63;;;37.15;;
46290;SDS011;32023;44.444;26.006;2023-01-04T01:38:43;64.15;;;39.67;;
46290;SDS011;32023;44.444;26.006;2023-01-04T01:41:14;57.38;;;37.30;;
46290;SDS011;32023;44.444;26.006;2023-01-04T01:43:58;61.28;;;39.92;;
46290;SDS011;32023;44.444;26.006;2023-01-04T01:49:19;59.60;;;37.65;;
46290;SDS011;32023;44.444;26.006;2023-01-04T01:51:58;58.47;;;37.35;;
46290;SDS011;32023;44.444;26.006;2023-01-04T01:54:33;55.92;;;37.63;;
46290;SDS011;32023;44.444;26.006;2023-01-04T01:57:08;62.40;;;38.95;;
46290;SDS011;32023;44.444;26.006;2023-01-04T02:02:08;58.55;;;37.00;;
46290;SDS011;32023;44.444;26.006;2023-01-04T02:04:36;56.45;;;36.33;;
46290;SDS011;32023;44.444;26.006;2023-01-04T02:07:06;61.45;;;38.05;;
46290;SDS011;32023;44.444;26.006;2023-01-04T02:09:34;54.58;;;35.90;;
46290;SDS011;32023;44.444;26.006;2023-01-04T02:12:01;55.85;;;34.25;;
46290;SDS011;32023;44.444;26.006;2023-01-04T02:14:27;63.60;;;37.08;;
46290;SDS011;32023;44.444;26.006;2023-01-04T02:22:56;64.17;;;37.63;;
46290;SDS011;32023;44.444;26.006;2023-01-04T02:34:45;98.03;;;57.20;;
46290;SDS011;32023;44.444;26.006;2023-01-04T02:42:49;70.55;;;43.40;;
46290;SDS011;32023;44.444;26.006;2023-01-04T02:45:54;56.20;;;35.40;;
46290;SDS011;32023;44.444;26.006;2023-01-04T02:48:36;55.95;;;35.35;;
46290;SDS011;32023;44.444;26.006;2023-01-04T02:51:27;53.60;;;33.40;;
46290;SDS011;32023;44.444;26.006;2023-01-04T02:53:57;56.13;;;35.30;;
46290;SDS011;32023;44.444;26.006;2023-01-04T02:56:29;57.92;;;36.30;;
46290;SDS011;32023;44.444;26.006;2023-01-04T03:11:13;55.97;;;34.75;;
46290;SDS011;32023;44.444;26.006;2023-01-04T03:16:59;53.08;;;33.45;;
46290;SDS011;32023;44.444;26.006;2023-01-04T03:19:30;53.15;;;36.03;;
46290;SDS011;32023;44.444;26.006;2023-01-04T03:22:17;52.55;;;35.08;;
46290;SDS011;32023;44.444;26.006;2023-01-04T03:25:24;54.25;;;36.22;;
46290;SDS011;32023;44.444;26.006;2023-01-04T03:28:42;58.85;;;37.20;;
46290;SDS011;32023;44.444;26.006;2023-01-04T03:31:33;56.13;;;35.30;;
46290;SDS011;32023;44.444;26.006;2023-01-04T03:34:30;59.63;;;37.75;;
46290;SDS011;32023;44.444;26.006;2023-01-04T03:46:04;60.65;;;34.08;;
46290;SDS011;32023;44.444;26.006;2023-01-04T03:59:09;48.75;;;31.23;;
46290;SDS011;32023;44.444;26.006;2023-01-04T04:01:42;54.58;;;31.90;;
46290;SDS011;32023;44.444;26.006;2023-01-04T04:04:10;49.20;;;31.95;;
46290;SDS011;32023;44.444;26.006;2023-01-04T04:06:55;56.22;;;32.90;;
46290;SDS011;32023;44.444;26.006;2023-01-04T04:09:39;50.65;;;33.45;;
46290;SDS011;32023;44.444;26.006;2023-01-04T04:12:05;54.83;;;34.30;;
46290;SDS011;32023;44.444;26.006;2023-01-04T04:14:32;53.58;;;33.30;;
46290;SDS011;32023;44.444;26.006;2023-01-04T04:16:58;50.53;;;31.92;;
46290;SDS011;32023;44.444;26.006;2023-01-04T04:19:24;54.60;;;33.13;;
46290;SDS011;32023;44.444;26.006;2023-01-04T04:21:51;54.70;;;35.35;;
46290;SDS011;32023;44.444;26.006;2023-01-04T04:24:21;51.40;;;34.42;;
46290;SDS011;32023;44.444;26.006;2023-01-04T04:26:49;57.05;;;33.80;;
46290;SDS011;32023;44.444;26.006;2023-01-04T04:29:16;48.28;;;31.73;;
46290;SDS011;32023;44.444;26.006;2023-01-04T04:31:42;64.45;;;38.35;;
46290;SDS011;32023;44.444;26.006;2023-01-04T04:34:09;66.03;;;40.13;;
46290;SDS011;32023;44.444;26.006;2023-01-04T04:36:35;72.45;;;42.08;;
46290;SDS011;32023;44.444;26.006;2023-01-04T04:39:02;61.83;;;37.47;;
46290;SDS011;32023;44.444;26.006;2023-01-04T04:41:28;64.80;;;38.55;;
46290;SDS011;32023;44.444;26.006;2023-01-04T04:44:06;62.13;;;38.47;;
46290;SDS011;32023;44.444;26.006;2023-01-04T04:46:37;67.68;;;39.75;;
46290;SDS011;32023;44.444;26.006;2023-01-04T04:49:04;63.03;;;40.40;;
46290;SDS011;32023;44.444;26.006;2023-01-04T04:51:34;59.20;;;38.08;;
46290;SDS011;32023;44.444;26.006;2023-01-04T04:54:04;59.65;;;36.28;;
46290;SDS011;32023;44.444;26.006;2023-01-04T04:56:34;54.70;;;36.33;;
46290;SDS011;32023;44.444;26.006;2023-01-04T04:59:03;64.00;;;36.92;;
46290;SDS011;32023;44.444;26.006;2023-01-04T05:01:30;57.78;;;37.10;;
46290;SDS011;32023;44.444;26.006;2023-01-04T05:03:57;58.30;;;37.58;;
46290;SDS011;32023;44.444;26.006;2023-01-04T05:06:23;60.45;;;35.88;;
46290;SDS011;32023;44.444;26.006;2023-01-04T05:08:49;58.78;;;36.40;;
46290;SDS011;32023;44.444;26.006;2023-01-04T05:11:16;55.83;;;36.40;;
46290;SDS011;32023;44.444;26.006;2023-01-04T05:14:05;57.05;;;37.03;;
46290;SDS011;32023;44.444;26.006;2023-01-04T05:16:32;59.38;;;36.28;;
46290;SDS011;32023;44.444;26.006;2023-01-04T05:18:58;57.58;;;37.30;;
46290;SDS011;32023;44.444;26.006;2023-01-04T05:21:27;55.10;;;35.10;;
46290;SDS011;32023;44.444;26.006;2023-01-04T05:23:53;52.38;;;34.45;;
46290;SDS011;32023;44.444;26.006;2023-01-04T05:26:19;54.75;;;34.22;;
46290;SDS011;32023;44.444;26.006;2023-01-04T05:28:46;48.85;;;32.30;;
46290;SDS011;32023;44.444;26.006;2023-01-04T05:31:12;52.35;;;33.90;;
46290;SDS011;32023;44.444;26.006;2023-01-04T05:33:38;52.72;;;32.70;;
46290;SDS011;32023;44.444;26.006;2023-01-04T05:36:04;55.63;;;34.97;;
46290;SDS011;32023;44.444;26.006;2023-01-04T05:38:31;55.35;;;35.53;;
46290;SDS011;32023;44.444;26.006;2023-01-04T05:40:58;53.60;;;34.78;;
46290;SDS011;32023;44.444;26.006;2023-01-04T05:43:28;56.13;;;35.47;;
46290;SDS011;32023;44.444;26.006;2023-01-04T05:45:55;54.03;;;33.00;;
46290;SDS011;32023;44.444;26.006;2023-01-04T05:48:22;58.20;;;35.95;;
46290;SDS011;32023;44.444;26.006;2023-01-04T05:50:49;57.75;;;36.63;;
46290;SDS011;32023;44.444;26.006;2023-01-04T05:53:15;55.85;;;34.50;;
46290;SDS011;32023;44.444;26.006;2023-01-04T05:55:43;61.90;;;36.10;;
46290;SDS011;32023;44.444;26.006;2023-01-04T05:58:11;55.85;;;35.58;;
46290;SDS011;32023;44.444;26.006;2023-01-04T06:00:37;58.33;;;36.83;;
46290;SDS011;32023;44.444;26.006;2023-01-04T06:03:04;58.67;;;36.85;;
46290;SDS011;32023;44.444;26.006;2023-01-04T06:05:30;56.70;;;35.85;;
46290;SDS011;32023;44.444;26.006;2023-01-04T06:07:58;48.25;;;32.58;;
46290;SDS011;32023;44.444;26.006;2023-01-04T06:10:24;54.65;;;35.45;;
46290;SDS011;32023;44.444;26.006;2023-01-04T06:12:51;50.83;;;33.13;;
46290;SDS011;32023;44.444;26.006;2023-01-04T06:15:17;55.22;;;34.83;;
46290;SDS011;32023;44.444;26.006;2023-01-04T06:17:44;53.13;;;33.38;;
46290;SDS011;32023;44.444;26.006;2023-01-04T06:20:13;52.63;;;33.90;;
46290;SDS011;32023;44.444;26.006;2023-01-04T06:22:39;51.97;;;34.67;;
46290;SDS011;32023;44.444;26.006;2023-01-04T06:25:07;53.58;;;35.15;;
46290;SDS011;32023;44.444;26.006;2023-01-04T06:27:37;56.55;;;35.72;;
46290;SDS011;32023;44.444;26.006;2023-01-04T06:30:03;64.40;;;37.17;;
46290;SDS011;32023;44.444;26.006;2023-01-04T06:32:30;57.88;;;36.33;;
46290;SDS011;32023;44.444;26.006;2023-01-04T06:34:56;61.33;;;35.97;;
46290;SDS011;32023;44.444;26.006;2023-01-04T06:37:25;55.10;;;33.65;;
46290;SDS011;32023;44.444;26.006;2023-01-04T06:39:52;57.85;;;34.85;;
46290;SDS011;32023;44.444;26.006;2023-01-04T06:42:18;53.28;;;34.05;;
46290;SDS011;32023;44.444;26.006;2023-01-04T06:45:03;52.38;;;33.47;;
46290;SDS011;32023;44.444;26.006;2023-01-04T06:47:32;49.85;;;32.90;;
46290;SDS011;32023;44.444;26.006;2023-01-04T06:49:59;53.35;;;34.58;;
46290;SDS011;32023;44.444;26.006;2023-01-04T06:52:31;54.53;;;33.22;;
46290;SDS011;32023;44.444;26.006;2023-01-04T06:54:58;58.90;;;33.47;;
46290;SDS011;32023;44.444;26.006;2023-01-04T06:59:58;59.83;;;34.08;;
46290;SDS011;32023;44.444;26.006;2023-01-04T07:02:24;55.42;;;35.13;;
46290;SDS011;32023;44.444;26.006;2023-01-04T07:04:52;56.88;;;34.45;;
46290;SDS011;32023;44.444;26.006;2023-01-04T07:07:18;57.88;;;36.22;;
46290;SDS011;32023;44.444;26.006;2023-01-04T07:09:45;57.88;;;33.63;;
46290;SDS011;32023;44.444;26.006;2023-01-04T07:12:11;62.40;;;35.92;;
46290;SDS011;32023;44.444;26.006;2023-01-04T07:14:38;64.05;;;37.47;;
46290;SDS011;32023;44.444;26.006;2023-01-04T07:17:05;60.58;;;35.65;;
46290;SDS011;32023;44.444;26.006;2023-01-04T07:19:42;57.20;;;36.28;;
46290;SDS011;32023;44.444;26.006;2023-01-04T07:22:18;57.72;;;35.15;;
46290;SDS011;32023;44.444;26.006;2023-01-04T07:24:44;59.65;;;38.42;;
46290;SDS011;32023;44.444;26.006;2023-01-04T07:27:10;59.10;;;37.20;;
46290;SDS011;32023;44.444;26.006;2023-01-04T07:29:38;60.55;;;37.67;;
46290;SDS011;32023;44.444;26.006;2023-01-04T07:32:10;59.33;;;36.53;;
46290;SDS011;32023;44.444;26.006;2023-01-04T07:34:40;55.88;;;35.85;;
46290;SDS011;32023;44.444;26.006;2023-01-04T07:37:10;55.00;;;36.45;;
46290;SDS011;32023;44.444;26.006;2023-01-04T07:39:37;58.25;;;37.42;;
46290;SDS011;32023;44.444;26.006;2023-01-04T07:42:04;65.75;;;40.95;;
46290;SDS011;32023;44.444;26.006;2023-01-04T07:44:32;65.22;;;40.75;;
46290;SDS011;32023;44.444;26.006;2023-01-04T07:47:02;64.30;;;42.90;;
46290;SDS011;32023;44.444;26.006;2023-01-04T07:49:28;72.10;;;51.20;;
46290;SDS011;32023;44.444;26.006;2023-01-04T07:51:55;75.10;;;50.67;;
46290;SDS011;32023;44.444;26.006;2023-01-04T07:54:21;84.75;;;58.92;;
46290;SDS011;32023;44.444;26.006;2023-01-04T07:56:48;78.32;;;56.13;;
46290;SDS011;32023;44.444;26.006;2023-01-04T07:59:16;74.50;;;50.17;;
46290;SDS011;32023;44.444;26.006;2023-01-04T08:01:45;62.22;;;44.30;;
46290;SDS011;32023;44.444;26.006;2023-01-04T08:04:13;62.90;;;42.25;;
46290;SDS011;32023;44.444;26.006;2023-01-04T08:06:48;60.42;;;38.58;;
46290;SDS011;32023;44.444;26.006;2023-01-04T08:09:15;46.70;;;28.08;;
46290;SDS011;32023;44.444;26.006;2023-01-04T08:11:45;44.47;;;29.60;;
46290;SDS011;32023;44.444;26.006;2023-01-04T08:14:20;43.25;;;24.83;;
46290;SDS011;32023;44.444;26.006;2023-01-04T08:16:49;40.58;;;24.52;;
46290;SDS011;32023;44.444;26.006;2023-01-04T08:19:27;36.08;;;25.10;;
46290;SDS011;32023;44.444;26.006;2023-01-04T08:21:54;37.58;;;23.73;;
46290;SDS011;32023;44.444;26.006;2023-01-04T08:24:20;39.78;;;23.88;;
46290;SDS011;32023;44.444;26.006;2023-01-04T08:26:51;34.90;;;22.08;;
46290;SDS011;32023;44.444;26.006;2023-01-04T08:29:18;33.20;;;21.35;;
46290;SDS011;32023;44.444;26.006;2023-01-04T08:31:50;36.13;;;20.85;;
46290;SDS011;32023;44.444;26.006;2023-01-04T08:34:19;31.27;;;18.23;;
46290;SDS011;32023;44.444;26.006;2023-01-04T08:36:47;26.38;;;15.85;;
46290;SDS011;32023;44.444;26.006;2023-01-04T08:39:17;23.58;;;14.73;;
46290;SDS011;32023;44.444;26.006;2023-01-04T08:41:45;24.48;;;14.80;;
46290;SDS011;32023;44.444;26.006;2023-01-04T08:47:32;20.48;;;12.88;;
46290;SDS011;32023;44.444;26.006;2023-01-04T08:50:16;27.27;;;13.32;;
46290;SDS011;32023;44.444;26.006;2023-01-04T08:52:44;25.55;;;14.15;;
46290;SDS011;32023;44.444;26.006;2023-01-04T08:55:13;23.27;;;13.95;;
46290;SDS011;32023;44.444;26.006;2023-01-04T08:57:45;22.50;;;13.73;;
46290;SDS011;32023;44.444;26.006;2023-01-04T09:00:18;24.08;;;12.55;;
46290;SDS011;32023;44.444;26.006;2023-01-04T09:02:45;20.98;;;11.52;;
46290;SDS011;32023;44.444;26.006;2023-01-04T09:05:17;17.45;;;11.07;;
46290;SDS011;32023;44.444;26.006;2023-01-04T09:07:46;24.98;;;11.55;;
46290;SDS011;32023;44.444;26.006;2023-01-04T09:10:23;15.60;;;10.20;;
46290;SDS011;32023;44.444;26.006;2023-01-04T09:16:07;22.50;;;11.70;;
46290;SDS011;32023;44.444;26.006;2023-01-04T09:18:35;15.27;;;9.90;;
46290;SDS011;32023;44.444;26.006;2023-01-04T09:21:08;16.35;;;10.93;;
46290;SDS011;32023;44.444;26.006;2023-01-04T09:23:47;15.88;;;9.75;;
46290;SDS011;32023;44.444;26.006;2023-01-04T09:26:23;18.40;;;10.27;;
46290;SDS011;32023;44.444;26.006;2023-01-04T09:28:50;17.63;;;10.52;;
46290;SDS011;32023;44.444;26.006;2023-01-04T09:31:20;16.00;;;10.25;;
46290;SDS011;32023;44.444;26.006;2023-01-04T09:33:53;15.55;;;10.25;;
46290;SDS011;32023;44.444;26.006;2023-01-04T09:36:21;19.42;;;9.82;;
46290;SDS011;32023;44.444;26.006;2023-01-04T09:38:50;15.43;;;9.52;;
46290;SDS011;32023;44.444;26.006;2023-01-04T09:43:59;15.50;;;9.63;;
46290;SDS011;32023;44.444;26.006;2023-01-04T09:47:05;13.43;;;9.30;;
46290;SDS011;32023;44.444;26.006;2023-01-04T09:52:10;14.63;;;9.48;;
46290;SDS011;32023;44.444;26.006;2023-01-04T09:54:48;12.13;;;7.03;;
46290;SDS011;32023;44.444;26.006;2023-01-04T09:57:54;12.57;;;7.72;;
46290;SDS011;32023;44.444;26.006;2023-01-04T10:00:42;15.10;;;8.00;;
46290;SDS011;32023;44.444;26.006;2023-01-04T10:05:47;9.18;;;6.13;;
46290;SDS011;32023;44.444;26.006;2023-01-04T10:08:20;14.32;;;6.57;;
46290;SDS011;32023;44.444;26.006;2023-01-04T10:10:48;12.15;;;5.75;;
46290;SDS011;32023;44.444;26.006;2023-01-04T10:13:38;7.72;;;5.22;;
46290;SDS011;32023;44.444;26.006;2023-01-04T10:28:14;12.13;;;5.00;;
46290;SDS011;32023;44.444;26.006;2023-01-04T10:40:30;12.27;;;4.68;;
46290;SDS011;32023;44.444;26.006;2023-01-04T10:43:16;6.93;;;4.90;;
46290;SDS011;32023;44.444;26.006;2023-01-04T10:46:16;9.20;;;4.20;;
46290;SDS011;32023;44.444;26.006;2023-01-04T10:48:53;7.38;;;5.20;;
46290;SDS011;32023;44.444;26.006;2023-01-04T10:55:29;9.73;;;4.90;;
46290;SDS011;32023;44.444;26.006;2023-01-04T11:10:16;7.40;;;4.95;;
46290;SDS011;32023;44.444;26.006;2023-01-04T11:12:51;7.22;;;4.55;;
46290;SDS011;32023;44.444;26.006;2023-01-04T11:15:30;10.20;;;4.78;;
46290;SDS011;32023;44.444;26.006;2023-01-04T11:18:02;11.02;;;5.53;;
46290;SDS011;32023;44.444;26.006;2023-01-04T11:20:57;9.45;;;6.15;;
46290;SDS011;32023;44.444;26.006;2023-01-04T11:23:41;16.25;;;5.72;;
46290;SDS011;32023;44.444;26.006;2023-01-04T11:26:12;8.30;;;4.97;;
46290;SDS011;32023;44.444;26.006;2023-01-04T11:32:34;9.90;;;5.13;;
46290;SDS011;32023;44.444;26.006;2023-01-04T11:35:44;9.13;;;5.72;;
46290;SDS011;32023;44.444;26.006;2023-01-04T11:38:23;11.95;;;6.43;;
46290;SDS011;32023;44.444;26.006;2023-01-04T11:43:24;10.48;;;6.57;;
46290;SDS011;32023;44.444;26.006;2023-01-04T12:03:20;9.35;;;6.07;;
46290;SDS011;32023;44.444;26.006;2023-01-04T12:06:12;10.15;;;7.00;;
46290;SDS011;32023;44.444;26.006;2023-01-04T12:09:07;9.27;;;5.90;;
46290;SDS011;32023;44.444;26.006;2023-01-04T12:12:05;19.80;;;6.00;;
46290;SDS011;32023;44.444;26.006;2023-01-04T12:17:52;11.48;;;6.05;;
46290;SDS011;32023;44.444;26.006;2023-01-04T12:20:26;9.18;;;5.93;;
46290;SDS011;32023;44.444;26.006;2023-01-04T12:22:56;13.55;;;6.50;;
46290;SDS011;32023;44.444;26.006;2023-01-04T12:27:56;14.38;;;5.30;;
46290;SDS011;32023;44.444;26.006;2023-01-04T12:30:32;12.82;;;6.10;;
46290;SDS011;32023;44.444;26.006;2023-01-04T12:32:59;8.32;;;5.43;;
46290;SDS011;32023;44.444;26.006;2023-01-04T12:36:01;8.82;;;5.13;;
46290;SDS011;32023;44.444;26.006;2023-01-04T12:41:16;7.68;;;4.50;;
46290;SDS011;32023;44.444;26.006;2023-01-04T12:43:45;8.07;;;5.43;;
46290;SDS011;32023;44.444;26.006;2023-01-04T12:57:25;12.57;;;6.22;;
46290;SDS011;32023;44.444;26.006;2023-01-04T13:07:56;11.73;;;5.57;;
46290;SDS011;32023;44.444;26.006;2023-01-04T13:10:37;10.07;;;6.38;;
46290;SDS011;32023;44.444;26.006;2023-01-04T13:13:34;8.00;;;6.13;;
46290;SDS011;32023;44.444;26.006;2023-01-04T13:21:31;10.75;;;7.55;;
46290;SDS011;32023;44.444;26.006;2023-01-04T13:24:14;11.00;;;6.90;;
46290;SDS011;32023;44.444;26.006;2023-01-04T13:26:57;10.90;;;7.03;;
46290;SDS011;32023;44.444;26.006;2023-01-04T13:29:35;10.07;;;7.10;;
46290;SDS011;32023;44.444;26.006;2023-01-04T13:32:02;14.32;;;8.40;;
46290;SDS011;32023;44.444;26.006;2023-01-04T13:37:26;10.73;;;7.43;;
46290;SDS011;32023;44.444;26.006;2023-01-04T13:42:57;15.73;;;8.55;;
46290;SDS011;32023;44.444;26.006;2023-01-04T13:46:00;13.93;;;8.55;;
46290;SDS011;32023;44.444;26.006;2023-01-04T13:48:40;11.68;;;8.30;;
46290;SDS011;32023;44.444;26.006;2023-01-04T13:54:22;13.00;;;8.65;;
46290;SDS011;32023;44.444;26.006;2023-01-04T13:57:06;11.55;;;7.43;;
46290;SDS011;32023;44.444;26.006;2023-01-04T13:59:51;11.50;;;7.90;;
46290;SDS011;32023;44.444;26.006;2023-01-04T14:02:21;11.90;;;7.90;;
46290;SDS011;32023;44.444;26.006;2023-01-04T14:05:03;9.93;;;7.38;;
46290;SDS011;32023;44.444;26.006;2023-01-04T14:07:42;14.27;;;8.48;;
46290;SDS011;32023;44.444;26.006;2023-01-04T14:10:32;11.27;;;8.70;;
46290;SDS011;32023;44.444;26.006;2023-01-04T14:13:01;19.63;;;9.50;;
46290;SDS011;32023;44.444;26.006;2023-01-04T14:15:43;19.65;;;9.23;;
46290;SDS011;32023;44.444;26.006;2023-01-04T14:18:38;14.55;;;8.25;;
46290;SDS011;32023;44.444;26.006;2023-01-04T14:21:32;14.73;;;8.18;;
46290;SDS011;32023;44.444;26.006;2023-01-04T14:24:35;11.30;;;8.20;;
46290;SDS011;32023;44.444;26.006;2023-01-04T14:33:41;11.13;;;7.78;;
46290;SDS011;32023;44.444;26.006;2023-01-04T14:51:45;10.43;;;6.63;;
46290;SDS011;32023;44.444;26.006;2023-01-04T14:54:29;15.63;;;7.88;;
46290;SDS011;32023;44.444;26.006;2023-01-04T14:57:26;22.13;;;12.60;;
46290;SDS011;32023;44.444;26.006;2023-01-04T15:00:36;15.10;;;9.63;;
46290;SDS011;32023;44.444;26.006;2023-01-04T15:03:14;14.10;;;9.63;;
46290;SDS011;32023;44.444;26.006;2023-01-04T15:05:50;18.35;;;11.48;;
46290;SDS011;32023;44.444;26.006;2023-01-04T15:08:39;20.63;;;9.18;;
46290;SDS011;32023;44.444;26.006;2023-01-04T15:11:11;11.40;;;8.73;;
46290;SDS011;32023;44.444;26.006;2023-01-04T15:14:02;18.58;;;11.48;;
46290;SDS011;32023;44.444;26.006;2023-01-04T15:16:30;18.40;;;10.35;;
46290;SDS011;32023;44.444;26.006;2023-01-04T15:19:21;17.15;;;9.32;;
46290;SDS011;32023;44.444;26.006;2023-01-04T15:22:09;18.33;;;11.25;;
46290;SDS011;32023;44.444;26.006;2023-01-04T15:25:06;17.98;;;9.68;;
46290;SDS011;32023;44.444;26.006;2023-01-04T15:31:16;12.20;;;8.60;;
46290;SDS011;32023;44.444;26.006;2023-01-04T15:33:53;16.45;;;9.45;;
46290;SDS011;32023;44.444;26.006;2023-01-04T15:36:57;16.10;;;8.50;;
46290;SDS011;32023;44.444;26.006;2023-01-04T15:39:37;22.65;;;11.13;;
46290;SDS011;32023;44.444;26.006;2023-01-04T15:42:08;22.00;;;11.98;;
46290;SDS011;32023;44.444;26.006;2023-01-04T15:45:17;19.92;;;11.88;;
46290;SDS011;32023;44.444;26.006;2023-01-04T15:50:42;21.58;;;11.05;;
46290;SDS011;32023;44.444;26.006;2023-01-04T15:53:18;19.95;;;11.77;;
46290;SDS011;32023;44.444;26.006;2023-01-04T15:55:50;22.80;;;11.63;;
46290;SDS011;32023;44.444;26.006;2023-01-04T15:58:19;22.77;;;14.68;;
46290;SDS011;32023;44.444;26.006;2023-01-04T16:01:02;27.83;;;16.50;;
46290;SDS011;32023;44.444;26.006;2023-01-04T16:03:35;30.73;;;18.05;;
46290;SDS011;32023;44.444;26.006;2023-01-04T16:06:13;35.28;;;20.27;;
46290;SDS011;32023;44.444;26.006;2023-01-04T16:08:43;37.28;;;20.15;;
46290;SDS011;32023;44.444;26.006;2023-01-04T16:11:19;36.55;;;20.23;;
46290;SDS011;32023;44.444;26.006;2023-01-04T16:13:54;32.13;;;19.70;;
46290;SDS011;32023;44.444;26.006;2023-01-04T16:16:56;31.05;;;19.17;;
46290;SDS011;32023;44.444;26.006;2023-01-04T16:19:36;28.50;;;18.98;;
46290;SDS011;32023;44.444;26.006;2023-01-04T16:22:11;32.13;;;20.45;;
46290;SDS011;32023;44.444;26.006;2023-01-04T16:28:08;37.10;;;20.42;;
46290;SDS011;32023;44.444;26.006;2023-01-04T16:30:55;39.00;;;21.38;;
46290;SDS011;32023;44.444;26.006;2023-01-04T16:33:21;45.30;;;23.92;;
46290;SDS011;32023;44.444;26.006;2023-01-04T16:36:14;33.80;;;20.65;;
46290;SDS011;32023;44.444;26.006;2023-01-04T16:38:44;34.92;;;19.42;;
46290;SDS011;32023;44.444;26.006;2023-01-04T16:41:12;33.28;;;20.55;;
46290;SDS011;32023;44.444;26.006;2023-01-04T16:43:49;32.83;;;18.65;;
46290;SDS011;32023;44.444;26.006;2023-01-04T16:46:52;31.83;;;18.23;;
46290;SDS011;32023;44.444;26.006;2023-01-04T16:49:22;32.95;;;17.65;;
46290;SDS011;32023;44.444;26.006;2023-01-04T16:51:48;26.00;;;15.82;;
46290;SDS011;32023;44.444;26.006;2023-01-04T16:54:23;37.88;;;19.10;;
46290;SDS011;32023;44.444;26.006;2023-01-04T16:56:53;32.10;;;19.17;;
46290;SDS011;32023;44.444;26.006;2023-01-04T16:59:28;37.75;;;18.85;;
46290;SDS011;32023;44.444;26.006;2023-01-04T17:02:03;38.63;;;20.25;;
46290;SDS011;32023;44.444;26.006;2023-01-04T17:04:29;34.65;;;18.83;;
46290;SDS011;32023;44.444;26.006;2023-01-04T17:07:05;30.17;;;17.95;;
46290;SDS011;32023;44.444;26.006;2023-01-04T17:09:31;41.47;;;18.75;;
46290;SDS011;32023;44.444;26.006;2023-01-04T17:15:24;29.05;;;17.45;;
46290;SDS011;32023;44.444;26.006;2023-01-04T17:18:07;29.65;;;17.52;;
46290;SDS011;32023;44.444;26.006;2023-01-04T17:23:42;37.45;;;15.73;;
46290;SDS011;32023;44.444;26.006;2023-01-04T17:26:16;34.35;;;17.35;;
46290;SDS011;32023;44.444;26.006;2023-01-04T17:28:53;45.55;;;18.27;;
46290;SDS011;32023;44.444;26.006;2023-01-04T17:31:31;34.13;;;19.10;;
46290;SDS011;32023;44.444;26.006;2023-01-04T17:34:14;45.20;;;22.83;;
46290;SDS011;32023;44.444;26.006;2023-01-04T17:36:46;50.60;;;23.13;;
46290;SDS011;32023;44.444;26.006;2023-01-04T17:39:13;44.67;;;22.92;;
46290;SDS011;32023;44.444;26.006;2023-01-04T17:41:39;37.55;;;22.13;;
46290;SDS011;32023;44.444;26.006;2023-01-04T17:44:06;49.35;;;21.83;;
46290;SDS011;32023;44.444;26.006;2023-01-04T17:46:38;58.78;;;23.08;;
46290;SDS011;32023;44.444;26.006;2023-01-04T17:49:09;44.15;;;22.35;;
46290;SDS011;32023;44.444;26.006;2023-01-04T17:51:39;40.10;;;23.00;;
46290;SDS011;32023;44.444;26.006;2023-01-04T17:54:11;42.55;;;23.05;;
46290;SDS011;32023;44.444;26.006;2023-01-04T17:56:49;39.85;;;23.08;;
46290;SDS011;32023;44.444;26.006;2023-01-04T17:59:18;46.60;;;25.23;;
46290;SDS011;32023;44.444;26.006;2023-01-04T18:02:27;55.33;;;27.60;;
46290;SDS011;32023;44.444;26.006;2023-01-04T18:05:13;54.30;;;27.77;;
46290;SDS011;32023;44.444;26.006;2023-01-04T18:07:48;50.40;;;26.33;;
46290;SDS011;32023;44.444;26.006;2023-01-04T18:10:35;44.75;;;25.20;;
46290;SDS011;32023;44.444;26.006;2023-01-04T18:13:22;46.42;;;25.77;;
46290;SDS011;32023;44.444;26.006;2023-01-04T18:19:08;43.92;;;24.92;;
46290;SDS011;32023;44.444;26.006;2023-01-04T18:21:37;43.03;;;26.10;;
46290;SDS011;32023;44.444;26.006;2023-01-04T18:24:22;56.10;;;26.45;;
46290;SDS011;32023;44.444;26.006;2023-01-04T18:26:59;49.53;;;25.33;;
46290;SDS011;32023;44.444;26.006;2023-01-04T18:29:57;43.28;;;24.35;;
46290;SDS011;32023;44.444;26.006;2023-01-04T18:32:36;60.58;;;26.98;;
46290;SDS011;32023;44.444;26.006;2023-01-04T18:35:08;51.85;;;26.90;;
46290;SDS011;32023;44.444;26.006;2023-01-04T18:37:37;51.22;;;27.00;;
46290;SDS011;32023;44.444;26.006;2023-01-04T18:40:33;55.78;;;28.10;;
46290;SDS011;32023;44.444;26.006;2023-01-04T18:43:14;70.75;;;34.70;;